Time;durP1;ratioP1;P1;durP2;ratioP2;P2;SDS_P1;SDS_P2;PMS_P1;PMS_P2;Temp;Humidity;BMP_temperature;BMP_pressure;BME280_temperature;BME280_humidity;BME280_pressure;Samples;Min_cycle;Max_cycle;Signal;HPM_P1;HPM_P2
2021/12/07 00:02:07;;;;;;;12.83;10.87;;;1.40;99.90;;;;;;4986284;28;20182;-75
2021/12/07 00:04:34;;;;;;;15.53;12.37;;;1.40;99.90;;;;;;4992279;28;20285;-75
2021/12/07 00:07:00;;;;;;;11.73;10.43;;;1.50;99.90;;;;;;4986068;28;20233;-75
2021/12/07 00:09:26;;;;;;;12.87;11.27;;;1.50;99.90;;;;;;5012544;28;20187;-75
2021/12/07 00:11:52;;;;;;;12.03;10.43;;;1.50;99.90;;;;;;4999865;28;20192;-76
2021/12/07 00:14:24;;;;;;;12.10;10.80;;;1.50;99.90;;;;;;4995096;28;20207;-76
2021/12/07 00:16:52;;;;;;;13.03;11.07;;;1.60;99.90;;;;;;4995480;28;20180;-75
2021/12/07 00:19:18;;;;;;;13.47;11.07;;;1.60;99.90;;;;;;4992471;28;20183;-75
2021/12/07 00:21:45;;;;;;;16.43;11.93;;;1.60;99.90;;;;;;5014784;28;20189;-75
2021/12/07 00:24:12;;;;;;;14.63;11.40;;;1.60;99.90;;;;;;4997088;28;20669;-75
2021/12/07 00:26:42;;;;;;;13.80;11.73;;;1.70;99.90;;;;;;4997819;28;20230;-75
2021/12/07 00:29:10;;;;;;;16.90;12.50;;;1.60;99.90;;;;;;5006967;28;20188;-72
2021/12/07 00:31:46;;;;;;;13.53;11.73;;;1.60;99.90;;;;;;4994762;28;20286;-75
2021/12/07 00:34:16;;;;;;;14.13;11.83;;;1.60;99.90;;;;;;4994939;28;20732;-73
2021/12/07 00:36:45;;;;;;;13.97;12.30;;;1.60;99.90;;;;;;4994840;28;20176;-73
2021/12/07 00:39:13;;;;;;;17.30;12.07;;;1.60;99.90;;;;;;4995003;28;20207;-74
2021/12/07 00:41:39;;;;;;;17.33;11.80;;;1.60;99.90;;;;;;4994548;28;20191;-73
2021/12/07 00:44:05;;;;;;;13.07;11.43;;;1.60;99.90;;;;;;4985874;28;20716;-73
2021/12/07 00:46:32;;;;;;;11.93;10.70;;;1.50;99.90;;;;;;5014263;28;20186;-75
2021/12/07 00:48:59;;;;;;;12.57;10.77;;;1.50;99.90;;;;;;5014560;28;20258;-75
2021/12/07 00:51:25;;;;;;;13.63;10.93;;;1.50;99.90;;;;;;5014203;28;20226;-73
2021/12/07 00:53:51;;;;;;;13.07;10.63;;;1.50;99.90;;;;;;5014057;28;20194;-74
2021/12/07 00:56:16;;;;;;;12.47;10.57;;;1.40;99.90;;;;;;5014001;28;20261;-75
2021/12/07 00:58:42;;;;;;;11.43;10.23;;;1.40;99.90;;;;;;5009249;28;20171;-75
2021/12/07 01:01:12;;;;;;;11.27;10.00;;;1.50;99.90;;;;;;4985268;28;20210;-73
2021/12/07 01:03:39;;;;;;;13.57;10.10;;;1.50;99.90;;;;;;5013948;28;20199;-74
2021/12/07 01:25:06;;;;;;;10.13;9.07;;;1.40;99.90;;;;;;4994280;28;20213;-75
2021/12/07 01:27:31;;;;;;;9.27;8.30;;;1.40;99.90;;;;;;4993847;28;20191;-75
2021/12/07 01:30:10;;;;;;;9.30;8.40;;;1.40;99.90;;;;;;4993956;28;20642;-75
2021/12/07 01:59:35;;;;;;;9.10;8.20;;;1.40;99.90;;;;;;4993787;28;20222;-76
2021/12/07 02:02:09;;;;;;;7.90;7.10;;;1.40;99.90;;;;;;4991540;28;20563;-75
2021/12/07 02:04:36;;;;;;;7.90;7.10;;;1.30;99.90;;;;;;5013261;28;20199;-75
2021/12/07 02:07:02;;;;;;;9.23;8.30;;;1.30;99.90;;;;;;5013225;28;20187;-76
2021/12/07 02:09:28;;;;;;;7.53;6.83;;;1.30;99.90;;;;;;5013161;28;20190;-75
2021/12/07 02:11:59;;;;;;;7.53;6.83;;;1.30;99.90;;;;;;4985546;28;20282;-76
2021/12/07 02:14:26;;;;;;;8.40;7.27;;;1.30;99.90;;;;;;4991129;28;20191;-76
2021/12/07 02:16:58;;;;;;;7.47;6.77;;;1.30;99.90;;;;;;4985871;28;20602;-75
2021/12/07 02:19:24;;;;;;;7.90;7.20;;;1.40;99.90;;;;;;4993532;28;20191;-75
2021/12/07 02:21:52;;;;;;;7.27;6.57;;;1.20;99.90;;;;;;4993483;28;20598;-75
2021/12/07 02:24:17;;;;;;;7.10;6.40;;;2.10;99.90;;;;;;4993441;28;20586;-76
2021/12/07 02:26:43;;;;;;;7.20;6.60;;;1.30;99.90;;;;;;4993478;28;20259;-75
2021/12/07 02:29:10;;;;;;;7.17;6.57;;;1.20;99.90;;;;;;4990593;28;20178;-76
2021/12/07 02:31:36;;;;;;;7.70;6.50;;;1.20;99.90;;;;;;4995626;28;20199;-75
2021/12/07 02:34:02;;;;;;;6.80;6.17;;;1.30;99.90;;;;;;4973803;28;20239;-75
2021/12/07 02:36:28;;;;;;;7.43;6.63;;;1.20;99.90;;;;;;4995063;28;20238;-78
2021/12/07 02:38:54;;;;;;;7.00;6.40;;;1.30;99.90;;;;;;4982303;28;20184;-77
2021/12/07 02:41:19;;;;;;;6.83;6.23;;;1.30;99.90;;;;;;4995907;28;20701;-76
2021/12/07 02:43:46;;;;;;;7.10;6.43;;;1.30;99.90;;;;;;4996944;28;20223;-75
2021/12/07 02:46:12;;;;;;;6.27;5.67;;;1.40;99.90;;;;;;4997171;28;20215;-75
2021/12/07 02:48:38;;;;;;;6.30;5.70;;;1.30;99.90;;;;;;4996195;28;20211;-76
2021/12/07 02:51:04;;;;;;;6.03;5.53;;;1.40;99.90;;;;;;4988803;28;20560;-75
2021/12/07 02:53:32;;;;;;;6.10;5.50;;;1.30;99.90;;;;;;4998700;28;20250;-75
2021/12/07 02:56:00;;;;;;;7.00;6.30;;;1.30;99.90;;;;;;5016563;28;20175;-75
2021/12/07 02:58:26;;;;;;;6.10;5.50;;;1.40;99.90;;;;;;5016146;28;20265;-77
2021/12/07 03:01:00;;;;;;;6.23;5.73;;;1.40;99.90;;;;;;5016431;28;20250;-75
2021/12/07 03:03:28;;;;;;;6.27;5.67;;;1.40;99.90;;;;;;5016305;28;20198;-75
2021/12/07 03:06:11;;;;;;;6.73;6.13;;;1.30;99.90;;;;;;5010288;28;20309;-76
2021/12/07 03:27:50;;;;;;;5.53;4.83;;;1.40;99.90;;;;;;5015547;28;20194;-76
2021/12/07 03:30:15;;;;;;;5.47;4.97;;;1.40;99.90;;;;;;4993074;28;20180;-76
2021/12/07 03:32:41;;;;;;;5.50;5.00;;;1.40;99.90;;;;;;4995036;28;20237;-76
2021/12/07 03:35:07;;;;;;;6.57;5.60;;;1.40;99.90;;;;;;4986156;28;20642;-76
2021/12/07 03:37:33;;;;;;;5.77;5.17;;;1.40;99.90;;;;;;4997963;28;20176;-77
2021/12/07 03:39:59;;;;;;;5.67;5.13;;;1.40;99.90;;;;;;5014324;28;20182;-76
2021/12/07 03:42:24;;;;;;;5.80;5.30;;;1.40;99.90;;;;;;5001293;28;20187;-76
2021/12/07 03:44:50;;;;;;;6.00;5.50;;;1.40;99.90;;;;;;4995606;28;20218;-76
2021/12/07 03:47:16;;;;;;;6.00;5.50;;;1.40;99.90;;;;;;4984543;28;20233;-74
2021/12/07 03:49:42;;;;;;;5.57;5.07;;;1.40;99.90;;;;;;4997824;28;20270;-75
2021/12/07 03:52:07;;;;;;;5.70;5.20;;;1.40;99.90;;;;;;5015284;28;20206;-76
2021/12/07 03:54:33;;;;;;;5.00;4.60;;;1.40;99.90;;;;;;4998256;28;20241;-76
2021/12/07 03:56:59;;;;;;;5.70;5.20;;;1.50;99.90;;;;;;4997671;28;20186;-75
2021/12/07 03:59:24;;;;;;;5.43;4.93;;;1.40;99.90;;;;;;5015301;28;20179;-76
2021/12/07 04:01:51;;;;;;;5.50;5.00;;;1.40;99.90;;;;;;4997605;28;20237;-77
2021/12/07 04:04:17;;;;;;;5.33;4.83;;;1.40;99.90;;;;;;5015124;28;20195;-76
2021/12/07 04:06:43;;;;;;;5.10;4.47;;;1.40;99.90;;;;;;5015108;28;20190;-76
2021/12/07 04:09:09;;;;;;;4.33;3.97;;;1.40;99.90;;;;;;4993758;28;20187;-76
2021/12/07 04:11:35;;;;;;;4.37;3.97;;;1.40;99.90;;;;;;4988745;28;20202;-76
2021/12/07 04:14:01;;;;;;;5.00;4.60;;;1.40;99.90;;;;;;4993863;28;20242;-76
2021/12/07 04:16:26;;;;;;;5.00;4.50;;;1.40;99.90;;;;;;5014866;28;20179;-76
2021/12/07 04:18:52;;;;;;;4.43;4.03;;;1.50;99.90;;;;;;5014878;28;20179;-76
2021/12/07 04:21:18;;;;;;;4.37;3.97;;;1.50;99.90;;;;;;5014823;28;20185;-76
2021/12/07 04:23:44;;;;;;;4.37;4.07;;;1.50;99.90;;;;;;4997146;28;20198;-76
2021/12/07 04:26:12;;;;;;;3.97;3.57;;;1.50;99.90;;;;;;4997110;28;20175;-76
2021/12/07 04:28:38;;;;;;;4.00;3.70;;;1.60;99.90;;;;;;5014687;28;20641;-76
2021/12/07 04:31:05;;;;;;;4.53;3.93;;;1.50;99.90;;;;;;4986323;28;20553;-76
2021/12/07 04:33:31;;;;;;;3.67;3.37;;;1.60;99.90;;;;;;4995102;28;20196;-76
2021/12/07 04:35:58;;;;;;;4.10;3.70;;;1.60;99.90;;;;;;4995000;28;20187;-76
2021/12/07 04:38:24;;;;;;;3.43;3.13;;;1.60;99.90;;;;;;4984364;28;20211;-76
2021/12/07 04:40:49;;;;;;;3.27;3.00;;;1.60;99.90;;;;;;5013339;28;20171;-74
2021/12/07 04:43:15;;;;;;;2.83;2.53;;;1.60;99.90;;;;;;5011820;28;20194;-74
2021/12/07 04:59:05;;;;;;;3.10;2.27;;;1.80;99.90;;;;;;4994321;28;20226;-75
2021/12/07 05:01:32;;;;;;;2.70;2.50;;;1.80;99.90;;;;;;4992997;28;20673;-74
2021/12/07 05:04:01;;;;;;;3.57;2.67;;;1.90;99.90;;;;;;5000769;28;20223;-74
2021/12/07 05:06:30;;;;;;;3.73;3.43;;;1.70;99.90;;;;;;4997720;28;20179;-74
2021/12/07 05:09:07;;;;;;;3.20;2.90;;;1.70;99.90;;;;;;4992289;28;20327;-75
2021/12/07 05:24:37;;;;;;;2.97;2.63;;;1.80;99.90;;;;;;5013885;28;20750;-74
2021/12/07 05:37:56;;;;;;;2.77;2.20;;;2.10;99.90;;;;;;4991730;28;20763;-74
2021/12/07 05:40:26;;;;;;;2.77;2.50;;;2.10;99.90;;;;;;4989766;28;20176;-74
2021/12/07 05:42:52;;;;;;;2.40;2.20;;;2.10;99.90;;;;;;4989121;28;20179;-75
2021/12/07 05:45:22;;;;;;;3.10;2.40;;;2.10;99.90;;;;;;4990149;28;20231;-75
2021/12/07 05:47:48;;;;;;;2.30;2.10;;;2.20;99.90;;;;;;4974657;28;20628;-75
2021/12/07 05:50:18;;;;;;;2.93;2.20;;;2.20;99.90;;;;;;4992739;28;20215;-74
2021/12/07 05:52:44;;;;;;;2.60;2.10;;;2.20;99.90;;;;;;4993248;28;20231;-74
2021/12/07 05:55:10;;;;;;;2.73;2.30;;;2.20;99.90;;;;;;4993599;28;20207;-73
2021/12/07 05:57:36;;;;;;;2.20;2.00;;;2.20;99.90;;;;;;4993458;28;20175;-73
2021/12/07 06:00:06;;;;;;;1.93;1.80;;;2.20;99.90;;;;;;4989221;28;20175;-73
2021/12/07 06:02:32;;;;;;;3.10;2.00;;;2.20;99.90;;;;;;5013261;28;20180;-72
2021/12/07 06:04:58;;;;;;;3.13;2.10;;;2.10;99.90;;;;;;5012421;28;20203;-73
2021/12/07 06:07:23;;;;;;;3.17;2.47;;;2.10;99.90;;;;;;4975978;28;20180;-74
2021/12/07 06:09:49;;;;;;;3.13;2.83;;;2.10;99.90;;;;;;4991714;28;20181;-73
2021/12/07 06:12:15;;;;;;;3.87;2.57;;;2.10;99.90;;;;;;4996180;28;20554;-72
2021/12/07 06:14:43;;;;;;;3.87;2.37;;;2.10;99.90;;;;;;4996300;28;20726;-73
2021/12/07 06:17:09;;;;;;;2.77;2.57;;;2.00;99.90;;;;;;4996713;28;20572;-74
2021/12/07 06:19:35;;;;;;;2.27;2.07;;;2.00;99.90;;;;;;4996517;28;20526;-73
2021/12/07 06:22:01;;;;;;;2.93;2.40;;;2.00;99.90;;;;;;4996292;28;20175;-73
2021/12/07 06:24:26;;;;;;;3.70;2.10;;;2.00;99.90;;;;;;4995981;28;20250;-73
2021/12/07 06:26:52;;;;;;;2.83;2.47;;;2.00;99.90;;;;;;4995968;28;20596;-72
2021/12/07 06:29:18;;;;;;;3.53;2.50;;;2.00;99.90;;;;;;4995801;28;20183;-73
2021/12/07 06:31:44;;;;;;;3.53;2.60;;;2.00;99.90;;;;;;4999076;28;20210;-74
2021/12/07 06:34:10;;;;;;;3.80;2.50;;;2.00;99.90;;;;;;4995007;28;20252;-73
2021/12/07 06:36:37;;;;;;;2.70;2.50;;;2.00;99.90;;;;;;5005158;28;20238;-73
2021/12/07 06:39:05;;;;;;;3.13;2.60;;;2.00;99.90;;;;;;4987010;28;20173;-74
2021/12/07 06:41:31;;;;;;;4.30;3.10;;;2.00;99.90;;;;;;4998481;28;20176;-73
2021/12/07 06:43:56;;;;;;;4.87;3.07;;;2.00;99.90;;;;;;4995254;28;20215;-73
2021/12/07 06:46:22;;;;;;;3.50;3.00;;;1.90;99.90;;;;;;4996103;28;20180;-74
2021/12/07 06:48:48;;;;;;;6.37;3.63;;;1.90;99.90;;;;;;4980884;28;20230;-74
2021/12/07 06:51:13;;;;;;;5.20;3.37;;;1.90;99.90;;;;;;4995360;28;20546;-73
2021/12/07 06:53:40;;;;;;;4.63;3.20;;;1.90;99.90;;;;;;4995219;28;20237;-73
2021/12/07 06:56:07;;;;;;;4.00;3.03;;;1.90;99.90;;;;;;4995653;28;20251;-73
2021/12/07 06:58:34;;;;;;;3.50;3.07;;;1.90;99.90;;;;;;4978531;28;20183;-73
2021/12/07 07:01:00;;;;;;;6.07;3.73;;;1.90;99.90;;;;;;4980413;28;20543;-73
2021/12/07 07:03:26;;;;;;;4.40;3.20;;;1.90;99.90;;;;;;4995189;28;20199;-74
2021/12/07 07:05:52;;;;;;;3.07;2.70;;;1.90;99.90;;;;;;4996182;28;20557;-73
2021/12/07 07:08:18;;;;;;;3.53;3.23;;;1.90;99.90;;;;;;4996613;28;20203;-73
2021/12/07 07:10:45;;;;;;;3.27;2.80;;;1.90;99.90;;;;;;4996493;28;20650;-73
2021/12/07 07:13:12;;;;;;;5.47;3.30;;;1.90;99.90;;;;;;4996392;28;20231;-74
2021/12/07 07:15:38;;;;;;;3.63;2.97;;;2.00;99.90;;;;;;4996452;28;20207;-73
2021/12/07 07:18:04;;;;;;;4.17;2.50;;;1.90;99.90;;;;;;4996118;28;20168;-75
2021/12/07 07:20:30;;;;;;;3.13;2.83;;;2.00;99.90;;;;;;5003022;28;20184;-74
2021/12/07 07:22:55;;;;;;;5.87;2.87;;;1.90;99.90;;;;;;4997020;28;20183;-73
2021/12/07 07:25:21;;;;;;;3.40;3.10;;;1.90;99.90;;;;;;4996146;28;20199;-73
2021/12/07 07:27:47;;;;;;;3.33;3.03;;;2.00;99.90;;;;;;4995965;28;20172;-73
2021/12/07 07:30:15;;;;;;;4.93;3.27;;;1.90;99.90;;;;;;4996001;28;20259;-73
2021/12/07 07:32:42;;;;;;;7.60;3.87;;;1.90;99.90;;;;;;4980042;28;20709;-74
2021/12/07 07:35:09;;;;;;;6.77;3.83;;;1.90;99.90;;;;;;4979157;28;20200;-73
2021/12/07 07:37:36;;;;;;;4.33;3.43;;;1.90;99.90;;;;;;4992744;28;20175;-73
2021/12/07 07:40:05;;;;;;;5.40;3.30;;;1.90;99.90;;;;;;4998628;28;20195;-73
2021/12/07 07:42:30;;;;;;;6.17;2.87;;;1.90;99.90;;;;;;5015622;28;20175;-73
2021/12/07 07:44:56;;;;;;;4.47;3.30;;;1.90;99.90;;;;;;4996126;28;20230;-72
2021/12/07 07:47:22;;;;;;;6.13;3.50;;;1.90;99.90;;;;;;5015561;28;20185;-73
2021/12/07 07:49:47;;;;;;;5.80;3.33;;;2.00;99.90;;;;;;5012055;28;20190;-73
2021/12/07 07:52:13;;;;;;;3.00;2.80;;;2.00;99.90;;;;;;5012918;28;20201;-73
2021/12/07 07:54:39;;;;;;;4.40;3.10;;;2.00;99.90;;;;;;4995663;28;20239;-73
2021/12/07 07:57:05;;;;;;;3.17;2.83;;;2.00;99.90;;;;;;4994642;28;20178;-73
2021/12/07 07:59:30;;;;;;;4.33;3.40;;;2.10;99.90;;;;;;5004620;28;20262;-73
2021/12/07 08:01:56;;;;;;;6.27;3.10;;;2.10;99.90;;;;;;4998306;28;20187;-74
2021/12/07 08:04:22;;;;;;;4.20;2.97;;;2.10;99.90;;;;;;4987571;28;20203;-73
2021/12/07 08:06:47;;;;;;;3.93;2.63;;;2.10;99.90;;;;;;5007928;28;20692;-73
2021/12/07 08:09:13;;;;;;;3.63;3.00;;;2.10;99.90;;;;;;4993823;28;20187;-73
2021/12/07 08:11:39;;;;;;;3.70;3.40;;;2.20;99.90;;;;;;4994697;28;20562;-73
2021/12/07 08:14:05;;;;;;;4.13;3.27;;;2.10;99.90;;;;;;4994564;28;20195;-75
2021/12/07 08:16:31;;;;;;;3.73;3.10;;;2.10;99.90;;;;;;4991830;28;20168;-71
2021/12/07 08:18:57;;;;;;;3.00;2.60;;;2.20;99.90;;;;;;4994075;28;20176;-72
2021/12/07 08:21:22;;;;;;;3.03;2.40;;;2.20;99.90;;;;;;4977680;28;20230;-73
2021/12/07 08:23:49;;;;;;;4.13;2.20;;;2.20;99.90;;;;;;4994259;28;20195;-72
2021/12/07 08:26:22;;;;;;;5.30;2.67;;;2.20;99.90;;;;;;4976877;28;20176;-72
2021/12/07 08:28:50;;;;;;;3.57;2.43;;;2.30;99.90;;;;;;4994115;28;20172;-73
2021/12/07 08:31:16;;;;;;;4.80;2.70;;;2.30;99.90;;;;;;4979260;28;20662;-72
2021/12/07 08:33:42;;;;;;;3.27;2.93;;;2.30;99.90;;;;;;4993652;28;20220;-71
2021/12/07 08:36:08;;;;;;;2.67;2.47;;;2.40;99.90;;;;;;4977201;28;20173;-73
2021/12/07 08:38:34;;;;;;;6.57;2.70;;;2.50;99.90;;;;;;4994310;28;20725;-73
2021/12/07 08:40:59;;;;;;;3.40;2.47;;;2.50;99.90;;;;;;4992623;28;20183;-72
2021/12/07 08:43:31;;;;;;;2.67;2.47;;;2.50;99.90;;;;;;4979206;28;20694;-72
2021/12/07 08:45:59;;;;;;;3.33;2.70;;;2.60;99.90;;;;;;4994314;28;20728;-72
2021/12/07 08:48:26;;;;;;;3.60;2.60;;;2.70;99.90;;;;;;4994355;28;20243;-72
2021/12/07 08:50:52;;;;;;;3.77;2.53;;;2.60;99.90;;;;;;4994754;28;20176;-75
2021/12/07 08:53:21;;;;;;;4.70;2.83;;;2.80;99.90;;;;;;4995320;28;20199;-74
2021/12/07 09:01:21;;;;;;;3.37;1.93;;;2.90;99.90;;;;;;4963581;28;20191;-71
2021/12/07 09:03:49;;;;;;;3.20;2.30;;;3.00;99.90;;;;;;4993084;28;20196;-74
2021/12/07 09:06:15;;;;;;;3.60;2.03;;;3.00;99.90;;;;;;4991725;28;20176;-72
2021/12/07 09:08:41;;;;;;;6.13;2.40;;;3.10;99.90;;;;;;4994081;28;20547;-71
2021/12/07 09:11:10;;;;;;;2.47;1.60;;;3.10;99.90;;;;;;4994138;28;20181;-71
2021/12/07 09:13:37;;;;;;;5.77;2.40;;;3.10;99.90;;;;;;4993964;28;20192;-73
2021/12/07 09:16:03;;;;;;;2.83;2.10;;;3.20;99.90;;;;;;4977915;28;20207;-71
2021/12/07 09:18:29;;;;;;;7.50;2.40;;;3.20;99.90;;;;;;4979711;28;20187;-71
2021/12/07 09:20:57;;;;;;;2.77;1.93;;;3.20;99.90;;;;;;4991619;28;20187;-71
2021/12/07 09:23:23;;;;;;;3.23;1.60;;;3.30;99.90;;;;;;4993713;28;20561;-72
2021/12/07 09:25:48;;;;;;;3.73;1.50;;;3.40;99.90;;;;;;4993362;28;20180;-72
2021/12/07 09:28:14;;;;;;;4.40;2.03;;;3.40;99.90;;;;;;4993525;28;20555;-71
2021/12/07 09:30:40;;;;;;;2.10;1.53;;;3.40;99.90;;;;;;4993637;28;20186;-72
2021/12/07 09:33:07;;;;;;;4.50;1.43;;;3.50;99.90;;;;;;4977303;28;20237;-74
2021/12/07 09:35:34;;;;;;;3.63;1.40;;;3.50;99.90;;;;;;4993656;28;20183;-72
2021/12/07 09:38:00;;;;;;;2.33;1.63;;;3.50;99.90;;;;;;4978899;28;20172;-72
2021/12/07 09:40:28;;;;;;;3.53;2.00;;;3.60;99.90;;;;;;4993697;28;20183;-71
2021/12/07 09:42:55;;;;;;;3.70;1.90;;;3.70;99.90;;;;;;4994049;28;20181;-71
2021/12/07 09:45:21;;;;;;;3.43;1.30;;;3.70;99.90;;;;;;4976435;28;20207;-73
2021/12/07 09:47:48;;;;;;;3.07;1.50;;;3.80;99.90;;;;;;4993683;28;20175;-73
2021/12/07 09:50:17;;;;;;;1.70;1.60;;;4.90;99.90;;;;;;4993501;28;20174;-72
2021/12/07 09:52:47;;;;;;;4.83;1.50;;;3.90;99.90;;;;;;4977915;28;20254;-72
2021/12/07 09:55:13;;;;;;;2.40;1.40;;;3.90;99.90;;;;;;4992848;28;20741;-74
2021/12/07 09:57:39;;;;;;;4.13;1.63;;;4.00;99.90;;;;;;4991646;28;20180;-73
2021/12/07 10:00:08;;;;;;;4.30;1.70;;;4.00;99.90;;;;;;4976445;28;20222;-73
2021/12/07 10:02:34;;;;;;;4.03;1.30;;;4.10;99.90;;;;;;4992339;28;20200;-74
2021/12/07 10:04:59;;;;;;;4.53;2.07;;;4.10;99.90;;;;;;4991917;28;20634;-72
2021/12/07 10:07:25;;;;;;;4.20;1.67;;;4.20;99.90;;;;;;4992020;28;20191;-74
2021/12/07 10:09:52;;;;;;;3.17;1.50;;;4.30;99.90;;;;;;4989087;28;20191;-74
2021/12/07 10:12:23;;;;;;;3.13;1.10;;;4.30;99.90;;;;;;4991803;28;20726;-74
2021/12/07 10:14:49;;;;;;;4.50;1.37;;;4.50;99.90;;;;;;4974252;28;20286;-74
2021/12/07 10:17:22;;;;;;;3.73;1.40;;;4.70;99.90;;;;;;4990954;28;20179;-73
2021/12/07 10:19:49;;;;;;;3.27;1.30;;;5.00;99.90;;;;;;4993345;28;20547;-73
2021/12/07 10:22:20;;;;;;;1.90;1.47;;;4.70;99.90;;;;;;4991556;28;20180;-74
2021/12/07 10:24:54;;;;;;;3.77;1.57;;;4.80;99.90;;;;;;4991129;28;20200;-73
2021/12/07 10:27:40;;;;;;;2.30;1.50;;;4.80;99.90;;;;;;4992757;28;20549;-75
2021/12/07 10:30:10;;;;;;;4.40;2.00;;;4.80;99.90;;;;;;4993620;28;20222;-73
2021/12/07 10:32:39;;;;;;;2.37;1.90;;;4.80;99.90;;;;;;4993193;28;20204;-73
2021/12/07 10:35:25;;;;;;;3.57;1.50;;;4.80;99.90;;;;;;4990722;28;20255;-75
2021/12/07 10:38:16;;;;;;;2.13;1.57;;;4.90;99.90;;;;;;4994864;28;20192;-74
2021/12/07 10:41:02;;;;;;;2.57;1.50;;;4.90;99.90;;;;;;4991270;28;20181;-73
2021/12/07 10:43:50;;;;;;;3.03;1.87;;;4.80;99.90;;;;;;4991756;28;20230;-75
2021/12/07 10:46:37;;;;;;;4.50;1.70;;;4.80;99.90;;;;;;4992190;28;20187;-75
2021/12/07 10:49:09;;;;;;;5.13;1.63;;;4.80;99.90;;;;;;4992928;28;20265;-74
2021/12/07 10:51:34;;;;;;;3.90;1.73;;;4.70;99.90;;;;;;4987021;28;20203;-75
2021/12/07 10:54:00;;;;;;;2.53;1.47;;;4.70;99.90;;;;;;4992722;28;20213;-75
2021/12/07 10:56:35;;;;;;;1.67;1.23;;;4.80;99.90;;;;;;4994647;28;20260;-75
2021/12/07 10:59:04;;;;;;;2.83;1.47;;;4.70;99.90;;;;;;4997476;28;20183;-75
2021/12/07 11:01:36;;;;;;;5.93;2.67;;;4.80;99.90;;;;;;5016106;28;20548;-75
2021/12/07 11:04:23;;;;;;;2.67;1.87;;;4.80;99.90;;;;;;4997977;28;20259;-75
2021/12/07 11:07:20;;;;;;;3.53;2.13;;;5.00;99.90;;;;;;4997457;28;20203;-75
2021/12/07 11:09:50;;;;;;;6.27;2.30;;;5.10;99.90;;;;;;4997229;28;20302;-76
2021/12/07 11:12:19;;;;;;;2.17;1.90;;;5.30;99.90;;;;;;5014704;28;20208;-76
2021/12/07 11:14:49;;;;;;;6.43;2.20;;;5.30;99.90;;;;;;5014861;28;20276;-76
2021/12/07 11:17:17;;;;;;;4.23;1.53;;;5.30;99.90;;;;;;5014853;28;20541;-75
2021/12/07 11:19:43;;;;;;;3.20;2.00;;;5.00;99.90;;;;;;4997331;28;20190;-76
2021/12/07 11:22:13;;;;;;;2.00;1.60;;;5.10;99.90;;;;;;5014692;28;20618;-74
2021/12/07 11:24:43;;;;;;;4.53;1.83;;;5.30;99.90;;;;;;5014636;28;20272;-76
2021/12/07 11:30:07;;;;;;;4.50;1.93;;;5.30;99.90;;;;;;5014230;28;20758;-76
2021/12/07 11:32:33;;;;;;;3.83;1.60;;;5.30;99.90;;;;;;5008836;28;20217;-75
2021/12/07 11:35:17;;;;;;;3.37;2.27;;;5.40;99.90;;;;;;4988093;28;20202;-74
2021/12/07 11:37:43;;;;;;;3.70;2.10;;;5.50;99.90;;;;;;4995873;28;20185;-74
2021/12/07 11:40:10;;;;;;;2.97;1.60;;;5.60;99.90;;;;;;4995203;28;20316;-75
2021/12/07 11:42:41;;;;;;;4.20;2.33;;;5.70;99.90;;;;;;4989867;28;20262;-75
2021/12/07 11:45:17;;;;;;;3.73;2.30;;;5.70;99.90;;;;;;5011922;28;20220;-74
2021/12/07 11:47:48;;;;;;;2.90;1.80;;;5.60;99.90;;;;;;5004512;28;20190;-74
2021/12/07 11:50:23;;;;;;;5.13;2.00;;;5.50;99.90;;;;;;5014607;28;20234;-75
2021/12/07 11:52:54;;;;;;;3.67;1.70;;;5.50;99.90;;;;;;5015342;28;20203;-74
2021/12/07 11:55:21;;;;;;;3.30;1.70;;;5.60;99.90;;;;;;5014790;28;20237;-74
2021/12/07 11:57:48;;;;;;;2.40;1.60;;;5.70;99.90;;;;;;5014501;28;20612;-74
2021/12/07 12:00:21;;;;;;;5.03;1.77;;;5.60;99.90;;;;;;5014357;28;20169;-74
2021/12/07 12:02:47;;;;;;;5.30;2.20;;;5.50;99.90;;;;;;5013756;28;20193;-74
2021/12/07 12:05:13;;;;;;;6.03;1.80;;;5.50;99.90;;;;;;5014408;28;20198;-74
2021/12/07 12:07:41;;;;;;;4.20;1.67;;;5.60;99.90;;;;;;5013107;28;20186;-74
2021/12/07 12:10:09;;;;;;;3.30;1.40;;;5.60;99.90;;;;;;5007471;28;20183;-75
2021/12/07 12:13:06;;;;;;;8.97;2.27;;;5.50;99.90;;;;;;4994133;28;20207;-74
2021/12/07 12:15:56;;;;;;;3.00;1.67;;;5.50;99.90;;;;;;4992279;28;20177;-74
2021/12/07 12:18:45;;;;;;;3.50;1.83;;;5.50;99.90;;;;;;4987666;28;20189;-75
2021/12/07 12:21:26;;;;;;;4.97;1.90;;;5.60;99.90;;;;;;4993202;28;20280;-74
2021/12/07 12:24:09;;;;;;;2.93;1.50;;;5.50;99.90;;;;;;4978682;28;20753;-74
2021/12/07 12:26:36;;;;;;;5.30;1.70;;;5.60;99.90;;;;;;4993554;28;20545;-74
2021/12/07 12:29:24;;;;;;;4.47;1.77;;;5.50;99.90;;;;;;4995602;28;20179;-75
2021/12/07 12:31:56;;;;;;;2.60;1.20;;;5.30;99.90;;;;;;4994269;28;20205;-74
2021/12/07 12:34:28;;;;;;;3.37;1.53;;;5.40;99.90;;;;;;4990868;28;20187;-75
2021/12/07 12:37:05;;;;;;;5.40;1.23;;;5.30;99.90;;;;;;4992676;28;20168;-74
2021/12/07 12:39:58;;;;;;;4.77;1.53;;;5.30;99.90;;;;;;4993297;28;20259;-74
2021/12/07 12:42:32;;;;;;;4.97;1.67;;;5.40;99.90;;;;;;4993274;28;20699;-75
2021/12/07 12:45:05;;;;;;;2.63;1.83;;;5.40;99.90;;;;;;4993045;28;20722;-74
2021/12/07 12:47:32;;;;;;;4.40;1.37;;;5.50;99.90;;;;;;4991114;28;20216;-73
2021/12/07 12:50:17;;;;;;;2.07;1.33;;;5.60;99.90;;;;;;4993156;28;20178;-74
2021/12/07 12:52:49;;;;;;;2.70;1.40;;;5.40;99.90;;;;;;4992688;28;20276;-75
2021/12/07 12:55:29;;;;;;;2.57;1.57;;;5.40;99.90;;;;;;4992978;28;20696;-74
2021/12/07 12:57:55;;;;;;;3.63;1.00;;;5.40;99.90;;;;;;4991245;28;20171;-74
2021/12/07 13:00:23;;;;;;;5.70;1.60;;;5.40;99.90;;;;;;4990904;28;20282;-74
2021/12/07 13:02:52;;;;;;;3.07;1.27;;;5.30;99.90;;;;;;4994703;28;20547;-74
2021/12/07 13:05:33;;;;;;;5.17;2.03;;;5.30;99.90;;;;;;4995825;28;20217;-74
2021/12/07 13:08:16;;;;;;;2.40;1.90;;;5.20;99.90;;;;;;4984208;28;20190;-73
2021/12/07 13:11:02;;;;;;;2.83;2.00;;;5.20;99.90;;;;;;4993102;28;20238;-72
2021/12/07 13:13:36;;;;;;;3.83;2.30;;;5.20;99.90;;;;;;4993483;28;20244;-73
2021/12/07 13:16:13;;;;;;;4.20;2.03;;;5.20;99.90;;;;;;4993466;28;20193;-74
2021/12/07 13:18:41;;;;;;;2.53;1.60;;;5.10;99.90;;;;;;4993841;28;20202;-73
2021/12/07 13:21:30;;;;;;;2.43;1.60;;;5.10;99.90;;;;;;4992885;28;20190;-74
2021/12/07 13:24:02;;;;;;;3.10;1.67;;;5.10;99.90;;;;;;4992880;28;20292;-74
2021/12/07 13:26:40;;;;;;;3.47;1.50;;;5.00;99.90;;;;;;4994034;28;20186;-75
2021/12/07 13:29:12;;;;;;;4.87;1.50;;;5.10;99.90;;;;;;4990820;28;20670;-75
2021/12/07 13:31:44;;;;;;;3.17;1.57;;;5.00;99.90;;;;;;4992856;28;20673;-75
2021/12/07 13:34:11;;;;;;;3.23;1.73;;;5.10;99.90;;;;;;4993918;28;20241;-74
2021/12/07 13:36:42;;;;;;;2.97;1.30;;;5.00;99.90;;;;;;4992603;28;20187;-73
2021/12/07 13:39:19;;;;;;;3.73;1.73;;;5.00;99.90;;;;;;4982395;28;20235;-74
2021/12/07 13:42:05;;;;;;;3.17;1.70;;;5.00;99.90;;;;;;5013624;28;20202;-74
2021/12/07 13:44:38;;;;;;;4.17;1.90;;;5.10;99.90;;;;;;5013622;28;20294;-74
2021/12/07 13:47:34;;;;;;;2.63;1.47;;;5.00;99.90;;;;;;5003098;28;20660;-75
2021/12/07 13:50:16;;;;;;;5.27;1.40;;;5.00;99.90;;;;;;4992861;28;20259;-73
2021/12/07 13:52:49;;;;;;;5.90;1.87;;;5.10;99.90;;;;;;4989912;28;20217;-75
2021/12/07 13:55:18;;;;;;;3.90;1.67;;;5.10;99.90;;;;;;4993672;28;20254;-73
2021/12/07 13:57:47;;;;;;;2.93;1.40;;;5.10;99.90;;;;;;4993784;28;20186;-73
2021/12/07 14:00:27;;;;;;;4.73;2.00;;;5.20;99.90;;;;;;4993336;28;20676;-74
2021/12/07 14:03:00;;;;;;;1.70;1.10;;;5.20;99.90;;;;;;4992272;28;20266;-74
2021/12/07 14:05:27;;;;;;;4.10;1.47;;;5.20;99.90;;;;;;4993679;28;20236;-73
2021/12/07 14:07:55;;;;;;;3.17;1.50;;;5.20;99.90;;;;;;4993365;28;20185;-74
2021/12/07 14:10:27;;;;;;;2.47;1.30;;;5.20;99.90;;;;;;4993721;28;20273;-74
2021/12/07 14:12:55;;;;;;;3.03;1.40;;;5.20;99.90;;;;;;4992377;28;20237;-74
2021/12/07 14:15:23;;;;;;;2.57;1.53;;;5.20;99.90;;;;;;5013160;28;20198;-73
2021/12/07 14:17:56;;;;;;;2.90;1.30;;;5.10;99.90;;;;;;4990292;28;20187;-73
2021/12/07 14:20:37;;;;;;;5.00;1.77;;;5.10;99.90;;;;;;5013299;28;20178;-72
2021/12/07 14:23:14;;;;;;;3.07;1.33;;;5.00;99.90;;;;;;4995417;28;20217;-72
2021/12/07 14:25:47;;;;;;;5.93;1.60;;;4.90;99.90;;;;;;5013143;28;20586;-73
2021/12/07 14:28:23;;;;;;;4.13;1.67;;;4.90;99.90;;;;;;4995661;28;20557;-73
2021/12/07 14:30:49;;;;;;;8.17;2.40;;;4.90;99.90;;;;;;4994269;28;20189;-72
2021/12/07 14:33:16;;;;;;;6.60;2.17;;;4.90;99.90;;;;;;4995681;28;20578;-72
2021/12/07 14:35:42;;;;;;;2.47;1.50;;;4.90;99.90;;;;;;4995452;28;20260;-74
2021/12/07 14:38:08;;;;;;;3.50;1.20;;;4.80;99.90;;;;;;4995488;28;20260;-74
2021/12/07 14:40:34;;;;;;;3.67;1.70;;;4.80;99.90;;;;;;4995097;28;20214;-73
2021/12/07 14:43:00;;;;;;;2.23;1.70;;;4.80;99.90;;;;;;4996933;28;20181;-73
2021/12/07 14:45:25;;;;;;;3.53;1.60;;;4.80;99.90;;;;;;4996113;28;20293;-73
2021/12/07 14:47:51;;;;;;;4.33;1.30;;;4.80;99.90;;;;;;4996124;28;20267;-73
2021/12/07 14:50:17;;;;;;;2.80;1.30;;;4.70;99.90;;;;;;5011776;28;20589;-72
2021/12/07 14:52:43;;;;;;;3.07;1.23;;;4.80;99.90;;;;;;4983781;28;20219;-73
2021/12/07 14:55:09;;;;;;;5.10;1.40;;;4.80;99.90;;;;;;4996924;28;20199;-72
2021/12/07 14:57:37;;;;;;;2.80;1.30;;;4.70;99.90;;;;;;4994715;28;20197;-71